Time;durP1;ratioP1;P1;durP2;ratioP2;P2;SDS_P1;SDS_P2;PMS_P1;PMS_P2;Temp;Humidity;BMP_temperature;BMP_pressure;BME280_temperature;BME280_humidity;BME280_pressure;Samples;Min_cycle;Max_cycle;Signal;HPM_P1;HPM_P2
2022/11/24 00:00:49;;;;;;;;;;;7.40;99.90;;;;;;4963237;28;135130;-71
2022/11/24 00:03:15;;;;;;;;;;;7.30;99.90;;;;;;4991062;28;20052;-73
2022/11/24 00:05:41;;;;;;;;;;;7.30;99.90;;;;;;4924864;28;210059;-73
2022/11/24 00:08:07;;;;;;;;;;;7.30;99.90;;;;;;4989187;28;19922;-72
2022/11/24 00:10:33;;;;;;;;;;;7.20;99.90;;;;;;4943481;28;206126;-72
2022/11/24 00:12:59;;;;;;;;;;;7.20;99.90;;;;;;4972204;28;19926;-72
2022/11/24 00:15:25;;;;;;;;;;;7.10;99.90;;;;;;4961808;28;220248;-73
2022/11/24 00:17:51;;;;;;;;;;;7.10;99.90;;;;;;4997449;28;20315;-73
2022/11/24 00:20:17;;;;;;;;;;;7.10;99.90;;;;;;4956887;28;205160;-71
2022/11/24 00:22:43;;;;;;;;;;;7.00;99.90;;;;;;4996770;28;19925;-72
2022/11/24 00:25:09;;;;;;;;;;;7.00;99.90;;;;;;4939348;28;211832;-72
2022/11/24 00:27:35;;;;;;;;;;;6.90;99.90;;;;;;5000657;28;19940;-73
2022/11/24 00:30:01;;;;;;;;;;;6.90;99.90;;;;;;4952345;28;212093;-72
2022/11/24 00:32:28;;;;;;;;;;;6.90;99.90;;;;;;4924576;28;19929;-71
2022/11/24 00:34:54;;;;;;;;;;;6.80;99.90;;;;;;4972018;28;19938;-72
2022/11/24 00:37:20;;;;;;;;;;;6.80;99.90;;;;;;4974557;28;166671;-72
2022/11/24 00:39:46;;;;;;;;;;;6.80;99.90;;;;;;4969933;28;19969;-71
2022/11/24 00:42:13;;;;;;;;;;;6.70;99.90;;;;;;4957984;28;207620;-72
2022/11/24 00:44:39;;;;;;;;;;;6.70;99.90;;;;;;4975417;28;19922;-72
2022/11/24 00:47:05;;;;;;;;;;;6.80;99.90;;;;;;4951530;28;225073;-72
2022/11/24 00:49:31;;;;;;;;;;;6.70;99.90;;;;;;5002590;28;19930;-72
2022/11/24 00:51:57;;;;;;;;;;;6.70;99.90;;;;;;4960542;28;146952;-72
2022/11/24 00:54:23;;;;;;;;;;;6.80;99.90;;;;;;5002638;28;19930;-71
2022/11/24 00:56:49;;;;;;;;;;;6.70;99.90;;;;;;4958131;28;216160;-70
2022/11/24 00:59:15;;;;;;;;;;;6.70;99.90;;;;;;4971539;28;19934;-71
2022/11/24 01:01:41;;;;;;;;;;;6.80;99.90;;;;;;4964235;28;213315;-71
2022/11/24 01:04:07;;;;;;;;;;;6.80;99.90;;;;;;4994124;28;19930;-71
2022/11/24 01:06:34;;;;;;;;;;;6.80;99.90;;;;;;4952525;28;161302;-72
2022/11/24 01:09:00;;;;;;;;;;;6.80;99.90;;;;;;4978775;28;19933;-71
2022/11/24 01:11:28;;;;;;;;;;;6.80;99.90;;;;;;4951898;28;209635;-70
2022/11/24 01:13:56;;;;;;;;;;;6.80;99.90;;;;;;4979289;28;20311;-71
2022/11/24 01:16:23;;;;;;;;;;;6.80;99.90;;;;;;4971147;28;152454;-72
2022/11/24 01:18:49;;;;;;;;;;;6.80;99.90;;;;;;4975758;28;20406;-71
2022/11/24 01:21:15;;;;;;;;;;;6.80;99.90;;;;;;4958628;28;148376;-71
2022/11/24 01:23:41;;;;;;;;;;;6.80;99.90;;;;;;4971096;28;19930;-71
2022/11/24 01:26:09;;;;;;;;;;;6.80;99.90;;;;;;4951608;28;188348;-71
2022/11/24 01:28:35;;;;;;;;;;;6.80;99.90;;;;;;4999864;28;19930;-72
2022/11/24 01:31:02;;;;;;;;;;;6.80;99.90;;;;;;4952948;28;198947;-71
2022/11/24 01:33:28;;;;;;;;;;;6.80;99.90;;;;;;5006906;28;19933;-72
2022/11/24 01:35:55;;;;;;;;;;;6.80;99.90;;;;;;4967393;28;153636;-72
2022/11/24 01:38:22;;;;;;;;;;;6.80;99.90;;;;;;4979050;28;19930;-72
2022/11/24 01:40:48;;;;;;;;;;;6.80;99.90;;;;;;4970807;28;137413;-71
2022/11/24 01:43:20;;;;;;;;;;;6.90;99.90;;;;;;4997386;28;19990;-71
2022/11/24 01:45:47;;;;;;;;;;;6.90;99.90;;;;;;4954291;28;124718;-72
2022/11/24 01:48:28;;;;;;;;;;;6.90;99.90;;;;;;5000038;28;19926;-72
2022/11/24 01:50:57;;;;;;;;;;;6.90;99.90;;;;;;4962887;28;168123;-71
2022/11/24 01:53:24;;;;;;;;;;;7.00;99.90;;;;;;4990911;28;19922;-71
2022/11/24 01:55:50;;;;;;;;;;;7.10;99.90;;;;;;4938760;28;214591;-72
2022/11/24 01:58:22;;;;;;;;;;;7.10;99.90;;;;;;4990474;28;19925;-72
2022/11/24 02:00:48;;;;;;;;;;;7.10;99.90;;;;;;4956743;28;167993;-72
2022/11/24 02:03:16;;;;;;;;;;;7.00;99.90;;;;;;4990069;28;19926;-73
2022/11/24 02:05:55;;;;;;;;;;;7.00;99.90;;;;;;4938919;28;141067;-71
2022/11/24 02:08:33;;;;;;;;;;;7.00;99.90;;;;;;4984609;28;19931;-72
2022/11/24 02:11:01;;;;;;;;;;;7.00;99.90;;;;;;4946673;28;225744;-72
2022/11/24 02:13:27;;;;;;;;;;;6.90;99.90;;;;;;4989629;28;20006;-72
2022/11/24 02:15:53;;;;;;;;;;;6.90;99.90;;;;;;4945858;28;209191;-73
2022/11/24 02:18:19;;;;;;;;;;;6.80;99.90;;;;;;4989781;28;19930;-72
2022/11/24 02:20:45;;;;;;;;;;;6.80;99.90;;;;;;4948272;28;208077;-72
2022/11/24 02:23:21;;;;;;;;;;;6.70;99.90;;;;;;4988256;28;19931;-72
2022/11/24 02:25:50;;;;;;;;;;;6.70;99.90;;;;;;4934123;28;207482;-73
2022/11/24 02:28:17;;;;;;;;;;;6.70;99.90;;;;;;4995378;28;19926;-72
2022/11/24 02:30:43;;;;;;;;;;;6.70;99.90;;;;;;4959274;28;134609;-72
2022/11/24 02:33:10;;;;;;;;;;;6.70;99.90;;;;;;4975980;28;19932;-72
2022/11/24 02:35:36;;;;;;;;;;;6.70;99.90;;;;;;4940361;28;213736;-72
2022/11/24 02:38:03;;;;;;;;;;;6.70;99.90;;;;;;4993280;28;19930;-71
2022/11/24 02:40:29;;;;;;;;;;;6.70;99.90;;;;;;4944800;28;206906;-71
2022/11/24 02:43:08;;;;;;;;;;;6.70;99.90;;;;;;5018048;28;19926;-71
2022/11/24 02:45:34;;;;;;;;;;;6.70;99.90;;;;;;4973764;28;184023;-71
2022/11/24 02:48:00;;;;;;;;;;;6.70;99.90;;;;;;4972680;28;20410;-71
2022/11/24 02:50:26;;;;;;;;;;;6.70;99.90;;;;;;4949422;28;197445;-72
2022/11/24 02:52:52;;;;;;;;;;;6.70;99.90;;;;;;4996510;28;20380;-71
2022/11/24 02:55:19;;;;;;;;;;;6.70;99.90;;;;;;4924861;28;207039;-71
2022/11/24 02:57:46;;;;;;;;;;;6.70;99.90;;;;;;4984787;28;20319;-71
2022/11/24 03:00:12;;;;;;;;;;;6.70;99.90;;;;;;4921059;28;211914;-71
2022/11/24 03:02:39;;;;;;;;;;;6.70;99.90;;;;;;5015800;28;19922;-72
2022/11/24 03:05:05;;;;;;;;;;;6.70;99.90;;;;;;4932905;28;215432;-71
2022/11/24 03:07:31;;;;;;;;;;;6.70;99.90;;;;;;4961775;28;19927;-72
2022/11/24 03:09:57;;;;;;;;;;;6.70;99.90;;;;;;4959022;28;208005;-71
2022/11/24 03:12:23;;;;;;;;;;;6.70;99.90;;;;;;4953475;28;61389;-72
2022/11/24 03:14:49;;;;;;;;;;;6.80;99.90;;;;;;4950261;28;19934;-71
2022/11/24 03:17:15;;;;;;;;;;;6.80;99.90;;;;;;4958569;28;126345;-71
2022/11/24 03:19:40;;;;;;;;;;;6.80;99.90;;;;;;4973614;28;19937;-71
2022/11/24 03:22:06;;;;;;;;;;;6.80;99.90;;;;;;4940272;28;208747;-71
2022/11/24 03:24:32;;;;;;;;;;;6.90;99.90;;;;;;4974514;28;19937;-71
2022/11/24 03:26:58;;;;;;;;;;;6.90;99.90;;;;;;4979754;28;147536;-71
2022/11/24 03:29:24;;;;;;;;;;;6.90;99.90;;;;;;4974156;28;19922;-71
2022/11/24 03:31:50;;;;;;;;;;;6.90;99.90;;;;;;4946227;28;207568;-71
2022/11/24 03:34:16;;;;;;;;;;;6.90;99.90;;;;;;4953360;28;19981;-71
2022/11/24 03:36:42;;;;;;;;;;;6.90;99.90;;;;;;4953274;28;166194;-72
2022/11/24 03:39:09;;;;;;;;;;;7.00;99.90;;;;;;5005233;28;19997;-71
2022/11/24 03:41:35;;;;;;;;;;;7.00;99.90;;;;;;4971565;28;226419;-72
2022/11/24 03:44:01;;;;;;;;;;;7.00;99.90;;;;;;5005062;28;19932;-72
2022/11/24 03:46:27;;;;;;;;;;;7.00;99.90;;;;;;4979822;28;143317;-72
2022/11/24 03:48:53;;;;;;;;;;;7.10;99.90;;;;;;4973175;28;19926;-72
2022/11/24 03:51:19;;;;;;;;;;;7.00;99.90;;;;;;4965996;28;181904;-72
2022/11/24 03:53:45;;;;;;;;;;;7.00;99.90;;;;;;4982628;28;19984;-72
2022/11/24 03:56:13;;;;;;;;;;;7.00;99.90;;;;;;4953103;28;181942;-72
2022/11/24 03:58:39;;;;;;;;;;;7.00;99.90;;;;;;4972654;28;19942;-72
2022/11/24 04:01:04;;;;;;;;;;;7.00;99.90;;;;;;4958817;28;173529;-73
2022/11/24 04:03:30;;;;;;;;;;;6.90;99.90;;;;;;5002268;28;19922;-72
2022/11/24 04:05:56;;;;;;;;;;;6.90;99.90;;;;;;4953871;28;160098;-72
2022/11/24 04:08:22;;;;;;;;;;;6.90;99.90;;;;;;4960254;28;20017;-72
2022/11/24 04:10:50;;;;;;;;;;;6.90;99.90;;;;;;4939346;28;133712;-72
2022/11/24 04:13:16;;;;;;;;;;;6.90;99.90;;;;;;4977945;28;19937;-72
2022/11/24 04:15:42;;;;;;;;;;;6.90;99.90;;;;;;4936945;28;180616;-72
2022/11/24 04:18:09;;;;;;;;;;;6.90;99.90;;;;;;4955434;28;19926;-72
2022/11/24 04:20:35;;;;;;;;;;;6.90;99.90;;;;;;4924941;28;211999;-72
2022/11/24 04:23:01;;;;;;;;;;;6.90;99.90;;;;;;4977797;28;19927;-72
2022/11/24 04:25:28;;;;;;;;;;;6.90;99.90;;;;;;4906072;28;229709;-72
2022/11/24 04:27:55;;;;;;;;;;;6.90;99.90;;;;;;4983703;28;19930;-72
2022/11/24 04:30:21;;;;;;;;;;;6.90;99.90;;;;;;4959119;28;207826;-72
2022/11/24 04:32:47;;;;;;;;;;;6.90;99.90;;;;;;4997162;28;20333;-71
2022/11/24 04:35:13;;;;;;;;;;;6.90;99.90;;;;;;4924837;28;216140;-72
2022/11/24 04:37:40;;;;;;;;;;;6.90;99.90;;;;;;4965606;28;19942;-72
2022/11/24 04:40:07;;;;;;;;;;;6.90;99.90;;;;;;4911454;28;217086;-71
2022/11/24 04:42:33;;;;;;;;;;;6.90;99.90;;;;;;5016884;28;19936;-70
2022/11/24 04:44:59;;;;;;;;;;;6.80;99.90;;;;;;4956317;28;206240;-71
2022/11/24 04:47:26;;;;;;;;;;;6.80;99.90;;;;;;4947370;28;202326;-72
2022/11/24 04:49:52;;;;;;;;;;;6.80;99.90;;;;;;4974687;28;19937;-72
2022/11/24 04:52:19;;;;;;;;;;;6.80;99.90;;;;;;4957802;28;218946;-72
2022/11/24 04:54:45;;;;;;;;;;;6.80;99.90;;;;;;4994644;28;19930;-72
2022/11/24 04:57:15;;;;;;;;;;;6.70;99.90;;;;;;4938744;28;237001;-72
2022/11/24 04:59:41;;;;;;;;;;;6.70;99.90;;;;;;4952205;28;19938;-72
2022/11/24 05:02:07;;;;;;;;;;;6.70;99.90;;;;;;4931310;28;206561;-72
2022/11/24 05:04:34;;;;;;;;;;;6.70;99.90;;;;;;4959997;28;19930;-74
2022/11/24 05:07:00;;;;;;;;;;;6.70;99.90;;;;;;4948315;28;206051;-73
2022/11/24 05:09:27;;;;;;;;;;;6.60;99.90;;;;;;4978628;28;19933;-71
2022/11/24 05:11:53;;;;;;;;;;;6.60;99.90;;;;;;4965109;28;185437;-72
2022/11/24 05:14:19;;;;;;;;;;;6.50;99.90;;;;;;4977727;28;20045;-72
2022/11/24 05:16:45;;;;;;;;;;;6.50;99.90;;;;;;4959494;28;208628;-72
2022/11/24 05:19:12;;;;;;;;;;;6.50;99.90;;;;;;4979561;28;19934;-72
2022/11/24 05:21:38;;;;;;;;;;;6.40;99.90;;;;;;4977175;28;170020;-72
2022/11/24 05:24:04;;;;;;;;;;;6.40;99.90;;;;;;4988876;28;19922;-71
2022/11/24 05:26:30;;;;;;;;;;;6.30;99.90;;;;;;4958674;28;219701;-72
2022/11/24 05:28:56;;;;;;;;;;;6.30;99.90;;;;;;4972840;28;19930;-72
2022/11/24 05:31:22;;;;;;;;;;;6.30;99.90;;;;;;4935553;28;207499;-72
2022/11/24 05:33:48;;;;;;;;;;;6.30;99.90;;;;;;4981176;28;19933;-73
2022/11/24 05:38:59;;;;;;;;;;;6.20;99.90;;;;;;4983414;28;19926;-72
2022/11/24 05:41:25;;;;;;;;;;;6.20;99.90;;;;;;4953372;28;226755;-71
2022/11/24 05:43:51;;;;;;;;;;;6.20;99.90;;;;;;4971601;28;19929;-71
2022/11/24 05:46:17;;;;;;;;;;;6.20;99.90;;;;;;4974991;28;135584;-72
2022/11/24 05:48:43;;;;;;;;;;;6.30;99.90;;;;;;5011376;28;19922;-72
2022/11/24 05:51:09;;;;;;;;;;;6.30;99.90;;;;;;4966242;28;208452;-72
2022/11/24 05:53:35;;;;;;;;;;;6.30;99.90;;;;;;5001962;28;19922;-72
2022/11/24 05:56:02;;;;;;;;;;;6.30;99.90;;;;;;4972654;28;135259;-72
2022/11/24 05:58:28;;;;;;;;;;;6.30;99.90;;;;;;4987710;28;19943;-72
2022/11/24 06:00:54;;;;;;;;;;;6.30;99.90;;;;;;4938414;28;223313;-72
2022/11/24 06:03:20;;;;;;;;;;;6.30;99.90;;;;;;4997586;28;19926;-73
2022/11/24 06:05:46;;;;;;;;;;;6.30;99.90;;;;;;4939281;28;209974;-71
2022/11/24 06:08:12;;;;;;;;;;;6.30;99.90;;;;;;4995266;28;19922;-72
2022/11/24 06:10:39;;;;;;;;;;;6.30;99.90;;;;;;4961803;28;209675;-72
2022/11/24 06:13:07;;;;;;;;;;;6.40;99.90;;;;;;4983732;28;19926;-72
2022/11/24 06:15:35;;;;;;;;;;;6.40;99.90;;;;;;4975184;28;230307;-72
2022/11/24 06:18:01;;;;;;;;;;;6.40;99.90;;;;;;5010490;28;19933;-73
2022/11/24 06:20:27;;;;;;;;;;;6.50;99.90;;;;;;4961203;28;214690;-71
2022/11/24 06:22:56;;;;;;;;;;;6.40;99.90;;;;;;4955810;28;19930;-71
2022/11/24 06:25:22;;;;;;;;;;;6.40;99.90;;;;;;4956838;28;195671;-73
2022/11/24 06:27:49;;;;;;;;;;;6.40;99.90;;;;;;4994902;28;19937;-73
2022/11/24 06:30:15;;;;;;;;;;;6.40;99.90;;;;;;4971860;28;211691;-75
2022/11/24 06:32:43;;;;;;;;;;;6.40;99.90;;;;;;4976793;28;19923;-74
2022/11/24 06:35:10;;;;;;;;;;;6.40;99.90;;;;;;4928140;28;219070;-73
2022/11/24 06:37:36;;;;;;;;;;;6.40;99.90;;;;;;4972128;28;19926;-74
2022/11/24 06:40:03;;;;;;;;;;;6.40;99.90;;;;;;4943611;28;210183;-72
2022/11/24 06:42:30;;;;;;;;;;;6.40;99.90;;;;;;4991141;28;19926;-74
2022/11/24 06:44:56;;;;;;;;;;;6.40;99.90;;;;;;4960406;28;565176;-72
2022/11/24 06:47:23;;;;;;;;;;;6.40;99.90;;;;;;4991257;28;149480;-74
2022/11/24 06:49:50;;;;;;;;;;;6.40;99.90;;;;;;4989017;28;20335;-73
2022/11/24 06:52:16;;;;;;;;;;;6.40;99.90;;;;;;4971920;28;169407;-73
2022/11/24 06:54:42;;;;;;;;;;;6.40;99.90;;;;;;4978582;28;20513;-74
2022/11/24 06:57:08;;;;;;;;;;;6.50;99.90;;;;;;4979339;28;206246;-73
2022/11/24 06:59:34;;;;;;;;;;;6.50;99.90;;;;;;5005349;28;19947;-74
2022/11/24 07:02:00;;;;;;;;;;;6.50;99.90;;;;;;4987423;28;61371;-73
2022/11/24 07:04:26;;;;;;;;;;;6.50;99.90;;;;;;5011275;28;19922;-74
2022/11/24 07:06:54;;;;;;;;;;;6.50;99.90;;;;;;4937827;28;218823;-74
2022/11/24 07:09:20;;;;;;;;;;;6.50;99.90;;;;;;4977717;28;19933;-71
2022/11/24 07:11:46;;;;;;;;;;;6.50;99.90;;;;;;4965397;28;192717;-74
2022/11/24 07:14:13;;;;;;;;;;;6.60;99.90;;;;;;4981572;28;20025;-75
2022/11/24 07:16:39;;;;;;;;;;;6.60;99.90;;;;;;4967863;28;178422;-75
2022/11/24 07:19:05;;;;;;;;;;;6.60;99.90;;;;;;5013171;28;19937;-74
2022/11/24 07:21:32;;;;;;;;;;;6.60;99.90;;;;;;4964987;28;213334;-74
2022/11/24 07:23:58;;;;;;;;;;;6.50;99.90;;;;;;4984846;28;19922;-74
2022/11/24 07:26:24;;;;;;;;;;;6.50;99.90;;;;;;4974870;28;207772;-74
2022/11/24 07:28:50;;;;;;;;;;;6.50;99.90;;;;;;5012330;28;20284;-73
2022/11/24 07:31:20;;;;;;;;;;;6.50;99.90;;;;;;4943306;28;206584;-74
2022/11/24 07:33:49;;;;;;;;;;;6.40;99.90;;;;;;4994131;28;20339;-74
2022/11/24 07:36:15;;;;;;;;;;;6.40;99.90;;;;;;4971626;28;216732;-73
2022/11/24 07:38:41;;;;;;;;;;;6.40;99.90;;;;;;4985935;28;19930;-74
2022/11/24 07:41:09;;;;;;;;;;;6.40;99.90;;;;;;4960348;28;183617;-74
2022/11/24 07:43:35;;;;;;;;;;;6.40;99.90;;;;;;4994465;28;19922;-74
2022/11/24 07:46:01;;;;;;;;;;;6.40;99.90;;;;;;4965599;28;207816;-73
2022/11/24 07:48:27;;;;;;;;;;;6.40;99.90;;;;;;4984666;28;19930;-74
2022/11/24 07:50:53;;;;;;;;;;;6.40;99.90;;;;;;4948513;28;207368;-74
2022/11/24 07:53:19;;;;;;;;;;;6.40;99.90;;;;;;4997895;28;20351;-73
2022/11/24 07:55:53;;;;;;;;;;;6.50;99.90;;;;;;4968260;28;213409;-73
2022/11/24 07:58:19;;;;;;;;;;;6.50;99.90;;;;;;4998597;28;19930;-74
2022/11/24 08:00:45;;;;;;;;;;;6.50;99.90;;;;;;4963210;28;191983;-73
2022/11/24 08:03:11;;;;;;;;;;;6.50;99.90;;;;;;4983926;28;19926;-73
2022/11/24 08:05:37;;;;;;;;;;;6.50;99.90;;;;;;4940311;28;207481;-73
2022/11/24 08:08:03;;;;;;;;;;;6.60;99.90;;;;;;5003136;28;19930;-74
2022/11/24 08:10:29;;;;;;;;;;;6.60;99.90;;;;;;4965668;28;209861;-74
2022/11/24 08:13:29;;;;;;;;;;;6.70;99.90;;;;;;4987673;28;19929;-75
2022/11/24 08:16:04;;;;;;;;;;;6.80;99.90;;;;;;4978786;28;111485;-74
2022/11/24 08:18:36;;;;;;;;;;;6.90;99.90;;;;;;4995401;28;19933;-73
2022/11/24 08:21:03;;;;;;;;;;;7.00;99.90;;;;;;4967626;28;206432;-74
2022/11/24 08:23:29;;;;;;;;;;;7.10;99.90;;;;;;5009171;28;20400;-73
2022/11/24 08:25:56;;;;;;;;;;;7.10;99.90;;;;;;4954150;28;216352;-74
2022/11/24 08:28:22;;;;;;;;;;;7.10;99.90;;;;;;4974403;28;19926;-74
2022/11/24 08:30:48;;;;;;;;;;;7.10;99.90;;;;;;4945107;28;222317;-74
2022/11/24 08:33:14;;;;;;;;;;;7.10;99.90;;;;;;5009790;28;19926;-73
2022/11/24 08:35:41;;;;;;;;;;;7.10;99.90;;;;;;4957620;28;106099;-73
2022/11/24 08:38:07;;;;;;;;;;;7.20;99.90;;;;;;4980891;28;19930;-74
2022/11/24 08:40:33;;;;;;;;;;;7.20;99.90;;;;;;4945244;28;146716;-75
2022/11/24 08:42:59;;;;;;;;;;;7.20;99.90;;;;;;5016675;28;19922;-75
2022/11/24 08:45:26;;;;;;;;;;;7.30;99.90;;;;;;4940456;28;207717;-73
2022/11/24 08:47:53;;;;;;;;;;;7.30;99.90;;;;;;5010417;28;20311;-74
2022/11/24 08:50:20;;;;;;;;;;;7.30;99.90;;;;;;4934372;28;240015;-74
2022/11/24 08:52:47;;;;;;;;;;;7.30;99.90;;;;;;5022553;28;19922;-75
2022/11/24 08:55:13;;;;;;;;;;;7.30;99.90;;;;;;4967202;28;259441;-74
2022/11/24 08:57:39;;;;;;;;;;;7.40;99.90;;;;;;4986036;28;19923;-74
2022/11/24 09:00:06;;;;;;;;;;;7.40;99.90;;;;;;4959283;28;206066;-73
2022/11/24 09:02:32;;;;;;;;;;;7.50;99.90;;;;;;4978449;28;19937;-74
2022/11/24 09:04:57;;;;;;;;;;;7.50;99.90;;;;;;4979743;28;207978;-74
2022/11/24 09:07:23;;;;;;;;;;;7.50;99.90;;;;;;4974360;28;105411;-74
2022/11/24 09:09:49;;;;;;;;;;;7.60;99.90;;;;;;5005888;28;19933;-74
2022/11/24 09:12:15;;;;;;;;;;;7.60;99.90;;;;;;4956040;28;207403;-74
2022/11/24 09:14:41;;;;;;;;;;;7.60;99.90;;;;;;4991191;28;20006;-73
2022/11/24 09:17:07;;;;;;;;;;;7.70;99.90;;;;;;4946588;28;224499;-74
2022/11/24 09:19:33;;;;;;;;;;;7.70;99.90;;;;;;4993055;28;19965;-74
2022/11/24 09:21:59;;;;;;;;;;;7.80;99.90;;;;;;4977722;28;171217;-75
2022/11/24 09:24:25;;;;;;;;;;;7.70;99.90;;;;;;4990189;28;19930;-74
2022/11/24 09:26:54;;;;;;;;;;;7.80;99.90;;;;;;4962150;28;119395;-74
2022/11/24 09:29:20;;;;;;;;;;;7.80;99.90;;;;;;5009249;28;19926;-73
2022/11/24 09:31:46;;;;;;;;;;;7.80;99.90;;;;;;4961544;28;208528;-74
2022/11/24 09:34:13;;;;;;;;;;;7.80;99.90;;;;;;4990235;28;19929;-75
2022/11/24 09:36:39;;;;;;;;;;;7.90;99.90;;;;;;4963262;28;207331;-74
2022/11/24 09:39:08;;;;;;;;;;;7.90;99.90;;;;;;4978822;28;19933;-74
2022/11/24 09:41:55;;;;;;;;;;;7.90;99.90;;;;;;4954233;28;207963;-74
2022/11/24 09:44:24;;;;;;;;;;;7.90;99.90;;;;;;5009853;28;19926;-74
2022/11/24 09:46:59;;;;;;;;;;;7.90;99.90;;;;;;4964514;28;226557;-74
2022/11/24 09:49:37;;;;;;;;;;;7.90;99.90;;;;;;4977624;28;19933;-74
2022/11/24 09:52:08;;;;;;;;;;;8.00;99.90;;;;;;4963598;28;207384;-75
2022/11/24 09:54:34;;;;;;;;;;;8.00;99.90;;;;;;5010151;28;19922;-75
2022/11/24 09:57:03;;;;;;;;;;;8.10;99.90;;;;;;4977460;28;149091;-74
2022/11/24 09:59:29;;;;;;;;;;;8.10;99.90;;;;;;4987043;28;19945;-74
2022/11/24 10:01:55;;;;;;;;;;;8.10;99.90;;;;;;4976921;28;134639;-74
2022/11/24 10:04:24;;;;;;;;;;;8.20;99.90;;;;;;4980307;28;19922;-74
2022/11/24 10:06:56;;;;;;;;;;;8.20;99.90;;;;;;4954044;28;206709;-74
2022/11/24 10:09:35;;;;;;;;;;;8.30;99.90;;;;;;4988857;28;19998;-74
2022/11/24 10:12:01;;;;;;;;;;;8.40;99.90;;;;;;4959770;28;206914;-75
2022/11/24 10:14:47;;;;;;;;;;;8.40;99.90;;;;;;4981747;28;20362;-74
2022/11/24 10:17:23;;;;;;;;;;;8.50;99.90;;;;;;4942145;28;132518;-74
2022/11/24 10:19:59;;;;;;;;;;;8.50;99.90;;;;;;4985441;28;19933;-75
2022/11/24 10:22:34;;;;;;;;;;;8.50;99.90;;;;;;4957152;28;145642;-75
2022/11/24 10:25:08;;;;;;;;;;;8.50;99.90;;;;;;4935716;28;207708;-75
2022/11/24 10:27:45;;;;;;;;;;;8.50;99.90;;;;;;4955575;28;20322;-74
2022/11/24 10:30:18;;;;;;;;;;;8.50;99.90;;;;;;4962982;28;209143;-73
2022/11/24 10:32:48;;;;;;;;;;;8.50;99.90;;;;;;4994091;28;19926;-74
2022/11/24 10:35:19;;;;;;;;;;;8.50;99.90;;;;;;4946184;28;207671;-73
2022/11/24 10:37:51;;;;;;;;;;;8.60;99.90;;;;;;5002561;28;19934;-73
2022/11/24 10:40:37;;;;;;;;;;;8.60;99.90;;;;;;4966034;28;212208;-74
2022/11/24 10:43:09;;;;;;;;;;;8.70;99.90;;;;;;4995164;28;19922;-74
2022/11/24 10:45:36;;;;;;;;;;;8.70;99.90;;;;;;4959365;28;207886;-74
2022/11/24 10:48:03;;;;;;;;;;;8.80;99.90;;;;;;4994907;28;19930;-74
2022/11/24 10:50:34;;;;;;;;;;;8.90;99.90;;;;;;4967708;28;193087;-75
2022/11/24 10:53:15;;;;;;;;;;;8.90;99.90;;;;;;5019429;28;20345;-75
2022/11/24 10:55:56;;;;;;;;;;;9.00;99.90;;;;;;4963084;28;214696;-74
2022/11/24 10:58:25;;;;;;;;;;;9.10;99.90;;;;;;5008929;28;20343;-75
2022/11/24 11:00:51;;;;;;;;;;;9.10;99.90;;;;;;4957387;28;211763;-75
2022/11/24 11:03:17;;;;;;;;;;;9.10;99.90;;;;;;4991598;28;19927;-74
2022/11/24 11:06:01;;;;;;;;;;;9.00;99.90;;;;;;4932672;28;211722;-75
2022/11/24 11:08:29;;;;;;;;;;;9.00;99.90;;;;;;4966015;28;20422;-74
2022/11/24 11:11:17;;;;;;;;;;;9.10;99.90;;;;;;4947308;28;135586;-74
2022/11/24 11:13:54;;;;;;;;;;;9.10;99.90;;;;;;4994839;28;19926;-74
2022/11/24 11:16:29;;;;;;;;;;;9.20;99.90;;;;;;4973752;28;169530;-74
2022/11/24 11:18:55;;;;;;;;;;;9.30;99.90;;;;;;5014490;28;19929;-76
2022/11/24 11:21:26;;;;;;;;;;;9.30;99.90;;;;;;4937248;28;207315;-75
2022/11/24 11:23:52;;;;;;;;;;;9.40;99.90;;;;;;4958604;28;19933;-75
2022/11/24 11:26:24;;;;;;;;;;;9.50;99.90;;;;;;4944464;28;205275;-75
2022/11/24 11:29:00;;;;;;;;;;;9.50;99.90;;;;;;4992041;28;19926;-75
2022/11/24 11:31:26;;;;;;;;;;;9.60;99.90;;;;;;4973010;28;182072;-74
2022/11/24 11:33:54;;;;;;;;;;;9.60;99.90;;;;;;4980621;28;19945;-74
2022/11/24 11:36:20;;;;;;;;;;;9.60;99.90;;;;;;4977489;28;135352;-74
2022/11/24 11:38:46;;;;;;;;;;;9.70;99.90;;;;;;4990854;28;19930;-74
2022/11/24 11:41:16;;;;;;;;;;;9.70;99.90;;;;;;4955858;28;207801;-73
2022/11/24 11:43:44;;;;;;;;;;;9.70;99.90;;;;;;4987354;28;19926;-74
2022/11/24 11:46:11;;;;;;;;;;;9.80;99.90;;;;;;4935041;28;205101;-74
2022/11/24 11:48:39;;;;;;;;;;;9.80;99.90;;;;;;4964330;28;19938;-74
2022/11/24 11:51:08;;;;;;;;;;;9.80;99.90;;;;;;4941123;28;205307;-74
2022/11/24 11:53:43;;;;;;;;;;;9.90;99.90;;;;;;5008025;28;20339;-73
2022/11/24 11:56:29;;;;;;;;;;;9.90;99.90;;;;;;4969852;28;200036;-73
2022/11/24 11:58:58;;;;;;;;;;;10.10;99.90;;;;;;5020333;28;19941;-74
2022/11/24 12:01:25;;;;;;;;;;;10.10;99.90;;;;;;4954700;28;118959;-74
2022/11/24 12:03:56;;;;;;;;;;;10.60;99.90;;;;;;4992761;28;19922;-74
2022/11/24 12:06:40;;;;;;;;;;;12.20;99.90;;;;;;4959986;28;159812;-74
2022/11/24 12:09:06;;;;;;;;;;;13.30;99.90;;;;;;4982334;28;19941;-73
2022/11/24 12:11:48;;;;;;;;;;;14.30;99.90;;;;;;4994061;28;20239;-75
2022/11/24 12:14:26;;;;;;;;;;;14.80;99.90;;;;;;4965904;28;75587;-75
2022/11/24 12:16:52;;;;;;;;;;;15.40;99.90;;;;;;5005825;28;19926;-74
2022/11/24 12:19:30;;;;;;;;;;;16.00;99.90;;;;;;4956214;28;205984;-74
2022/11/24 12:22:05;;;;;;;;;;;16.30;99.90;;;;;;5004044;28;19926;-74
2022/11/24 12:24:31;;;;;;;;;;;16.70;99.90;;;;;;4958677;28;217733;-75
2022/11/24 12:27:04;;;;;;;;;;;16.80;99.90;;;;;;5011143;28;19926;-75
2022/11/24 12:29:33;;;;;;;;;;;16.90;99.90;;;;;;4979213;28;205963;-73
2022/11/24 12:32:04;;;;;;;;;;;16.90;99.90;;;;;;5006016;28;19930;-74
2022/11/24 12:34:49;;;;;;;;;;;17.00;99.90;;;;;;4973053;28;201777;-74
2022/11/24 12:37:15;;;;;;;;;;;17.20;99.90;;;;;;5007938;28;19934;-74
2022/11/24 12:39:41;;;;;;;;;;;17.60;99.90;;;;;;4955551;28;207543;-73
2022/11/24 12:42:29;;;;;;;;;;;17.80;99.90;;;;;;5007101;28;20017;-74
2022/11/24 12:45:03;;;;;;;;;;;17.70;99.60;;;;;;4969653;28;218476;-74
2022/11/24 12:47:40;;;;;;;;;;;17.70;99.90;;;;;;4963577;28;207222;-74
2022/11/24 12:50:11;;;;;;;;;;;18.20;99.90;;;;;;4940132;28;19969;-74
2022/11/24 12:52:45;;;;;;;;;;;18.50;99.40;;;;;;4913967;28;214833;-74
2022/11/24 12:55:11;;;;;;;;;;;18.60;99.20;;;;;;4954262;28;19922;-74
2022/11/24 12:57:52;;;;;;;;;;;18.80;99.60;;;;;;4931573;28;219932;-74
2022/11/24 13:00:19;;;;;;;;;;;18.70;98.30;;;;;;4970805;28;20234;-73
2022/11/24 13:03:00;;;;;;;;;;;18.80;99.90;;;;;;4915949;28;206850;-74
2022/11/24 13:05:25;;;;;;;;;;;18.70;98.00;;;;;;4957148;28;20455;-74
2022/11/24 13:08:03;;;;;;;;;;;18.90;99.30;;;;;;4939930;28;156900;-74
2022/11/24 13:10:31;;;;;;;;;;;18.70;98.40;;;;;;4992941;28;19933;-74
2022/11/24 13:12:56;;;;;;;;;;;18.10;98.30;;;;;;4938366;28;208772;-74
2022/11/24 13:15:23;;;;;;;;;;;18.20;99.50;;;;;;4999723;28;19926;-74
2022/11/24 13:17:49;;;;;;;;;;;18.30;99.30;;;;;;4966270;28;207603;-74
2022/11/24 13:20:19;;;;;;;;;;;18.10;98.70;;;;;;5013140;28;19933;-74
2022/11/24 13:22:47;;;;;;;;;;;18.10;99.90;;;;;;4957259;28;213313;-74
2022/11/24 13:25:16;;;;;;;;;;;18.50;99.60;;;;;;5000311;28;19933;-75
2022/11/24 13:27:43;;;;;;;;;;;18.50;98.80;;;;;;4958221;28;208729;-74
2022/11/24 13:30:28;;;;;;;;;;;18.30;99.00;;;;;;4978213;28;19923;-74
2022/11/24 13:33:01;;;;;;;;;;;18.30;99.20;;;;;;4913281;28;205097;-74
2022/11/24 13:35:27;;;;;;;;;;;17.90;99.00;;;;;;4966415;28;19930;-74
2022/11/24 13:37:53;;;;;;;;;;;17.80;99.50;;;;;;4928985;28;185191;-72
2022/11/24 13:40:21;;;;;;;;;;;17.50;99.10;;;;;;4984814;28;19923;-74
2022/11/24 13:43:02;;;;;;;;;;;17.00;99.90;;;;;;4957795;28;207155;-74
2022/11/24 13:45:49;;;;;;;;;;;16.90;99.90;;;;;;4983205;28;20311;-75
2022/11/24 13:48:18;;;;;;;;;;;17.20;99.90;;;;;;4914962;28;205746;-75
2022/11/24 13:50:50;;;;;;;;;;;17.30;99.90;;;;;;4958801;28;19930;-75
2022/11/24 13:53:33;;;;;;;;;;;16.60;99.90;;;;;;4930026;28;211124;-74
2022/11/24 13:56:01;;;;;;;;;;;15.40;99.90;;;;;;5006790;28;19929;-75
2022/11/24 13:58:35;;;;;;;;;;;14.90;99.90;;;;;;4930654;28;208555;-75
2022/11/24 14:01:09;;;;;;;;;;;15.10;99.90;;;;;;4960567;28;19922;-74
2022/11/24 14:03:37;;;;;;;;;;;15.20;99.90;;;;;;4940193;28;207941;-74
2022/11/24 14:06:03;;;;;;;;;;;15.40;99.90;;;;;;4987992;28;19926;-74
2022/11/24 14:08:34;;;;;;;;;;;15.50;99.90;;;;;;4947511;28;211336;-75
2022/11/24 14:11:01;;;;;;;;;;;15.60;99.90;;;;;;4989727;28;19941;-74
2022/11/24 14:13:31;;;;;;;;;;;15.30;99.90;;;;;;4980215;28;134512;-74
2022/11/24 14:16:10;;;;;;;;;;;15.10;99.90;;;;;;5003475;28;19937;-74
2022/11/24 14:18:37;;;;;;;;;;;14.90;99.90;;;;;;4963939;28;221569;-73
2022/11/24 14:21:22;;;;;;;;;;;14.70;99.90;;;;;;4978749;28;19922;-74
2022/11/24 14:23:50;;;;;;;;;;;14.80;99.90;;;;;;4966354;28;152407;-75
2022/11/24 14:26:18;;;;;;;;;;;14.90;99.90;;;;;;4984615;28;20388;-75
2022/11/24 14:28:45;;;;;;;;;;;15.00;99.90;;;;;;4975134;28;59688;-75
2022/11/24 14:31:27;;;;;;;;;;;14.60;99.90;;;;;;4975912;28;19922;-75